Estación Meteorológica Peña el Pijo (Robertgarden) [ 02/03/23 04:09:57 CET ]

Fecha Hora Presion(HPa) Temp (°C) Humedad % Rocio (°C) Viento ( m/s) Direccion Lluvia 1Hora(mm) Lluvia 24H(mm) LLuvia Total(mm)
2010-Dec-29 01:01:19 1009.200 1.7 77 -1.9         18.64
2010-Dec-29 02:03:18 1009.000 1.3 77 -2.3         18.64
2010-Dec-29 03:01:15 1009.000 0.7 80 -2.4         18.64
2010-Dec-29 04:01:17 1008.800 0.1 80 -2.9         18.64
2010-Dec-29 05:01:12 1008.700 -0.6 80 -3.6         18.64
2010-Dec-29 06:01:16 1008.500 0.4 80 -2.6         18.64
2010-Dec-29 07:01:12 1008.300 1.3 77 -2.3         18.64
2010-Dec-29 08:01:14 1008.500 0.3 79 -2.9         18.64
2010-Dec-29 09:01:12 1008.600 0.1 82 -2.6         18.64
2010-Dec-29 10:01:14 1009.100 1.9 83 -0.7         18.64
2010-Dec-29 11:01:11 1009.400 5.8 75 1.7         18.64
2010-Dec-29 12:01:11 1008.600 12.8 56 4.2         18.64
2010-Dec-29 13:01:16 1007.500 15.8 42 2.9         18.64
2010-Dec-29 14:01:14 1006.700 17.0 38 2.5         18.64
2010-Dec-29 15:01:17 1006.100 17.1 35 1.4         18.64
2010-Dec-29 16:01:16 1005.800 15.7 36 0.5         18.64
2010-Dec-29 17:01:12 1005.900 12.5 45 0.8         18.64
2010-Dec-29 18:01:15 1006.000 9.1 51 -0.6         18.64
2010-Dec-29 19:01:11 1006.100 5.5 62 -1.2         18.64
2010-Dec-29 20:01:11 1006.800 2.4 72 -2.1         18.64
2010-Dec-29 21:01:17 1006.700 0.7 76 -3.1         18.64
2010-Dec-29 22:01:13 1006.800 -0.1 79 -3.3         18.64
2010-Dec-29 23:01:16 1006.800 -0.1 81 -2.9         18.64

Temperatura Máxima:17°    Temperatura Mínima:
Presión Máxima:1009.400 Hpa    Presión Mínima:1005.800 Hpa


Volver